createdAt,value
2018-01-18T04:32:34.118Z,94.50
2018-01-18T04:35:08.644Z,94.60
2018-01-18T04:37:42.312Z,94.60
2018-01-18T04:40:16.376Z,94.50
2018-01-18T04:42:50.136Z,94.50
2018-01-18T04:45:25.408Z,94.60
2018-01-18T04:47:59.215Z,94.60
2018-01-18T04:50:33.060Z,94.90
2018-01-18T04:53:06.853Z,94.60
2018-01-18T04:55:40.663Z,94.40
2018-01-18T04:58:36.440Z,94.80
2018-01-18T05:01:10.284Z,94.80
2018-01-18T05:03:44.895Z,95.10
2018-01-18T05:06:18.699Z,95.10
2018-01-18T05:08:52.799Z,95.00
2018-01-18T05:11:27.421Z,94.80
2018-01-18T05:14:01.263Z,94.80
2018-01-18T05:16:35.060Z,94.70
2018-01-18T05:19:08.899Z,94.90
2018-01-18T05:21:42.607Z,94.90
2018-01-18T05:24:17.913Z,94.80
2018-01-18T05:26:52.504Z,94.60
2018-01-18T05:29:27.143Z,94.90
2018-01-18T05:32:00.948Z,94.80
2018-01-18T05:34:35.476Z,94.70
2018-01-18T05:37:09.295Z,94.70
2018-01-18T05:39:43.405Z,95.10
2018-01-18T05:42:18.012Z,94.80
2018-01-18T05:44:51.864Z,94.80
2018-01-18T05:47:25.685Z,94.80
2018-01-18T05:49:59.534Z,94.90
2018-01-18T05:52:33.261Z,94.60
2018-01-18T05:55:07.925Z,95.20
2018-01-18T05:57:42.623Z,95.20
2018-01-18T06:00:16.643Z,94.80
2018-01-18T06:02:50.476Z,94.70
2018-01-18T06:05:25.056Z,94.50
2018-01-18T06:07:58.897Z,94.50
2018-01-18T06:10:34.484Z,94.70
2018-01-18T06:13:08.297Z,94.70
2018-01-18T06:15:42.813Z,94.60
2018-01-18T06:18:16.594Z,94.70
2018-01-18T06:20:51.264Z,94.50
2018-01-18T06:23:25.069Z,94.50
2018-01-18T06:25:58.915Z,94.60
2018-01-18T06:28:32.679Z,94.80
2018-01-18T06:31:06.749Z,94.70
2018-01-18T06:33:40.690Z,94.50
2018-01-18T06:36:14.541Z,94.80
2018-01-18T06:38:48.323Z,94.70
2018-01-18T06:41:22.152Z,94.60
2018-01-18T06:43:55.964Z,94.90
2018-01-18T06:46:29.737Z,94.90
2018-01-18T06:49:03.756Z,95.50
2018-01-18T06:51:37.536Z,94.30
2018-01-18T06:54:11.430Z,93.30
2018-01-18T06:56:45.119Z,93.80
2018-01-18T06:59:19.008Z,94.30
2018-01-18T07:01:52.659Z,94.70
2018-01-18T07:04:26.870Z,94.80
2018-01-18T07:07:00.668Z,94.90
2018-01-18T07:09:35.320Z,95.10
2018-01-18T07:12:09.120Z,95.00
2018-01-18T07:14:42.964Z,95.00
2018-01-18T07:17:17.315Z,95.20
2018-01-18T07:19:51.183Z,95.10
2018-01-18T07:22:25.015Z,94.90
2018-01-18T07:24:58.791Z,94.90
2018-01-18T07:27:32.557Z,94.90
2018-01-18T07:30:07.408Z,94.90
2018-01-18T07:32:41.976Z,94.70
2018-01-18T07:35:15.775Z,94.70
2018-01-18T07:37:49.444Z,94.40
2018-01-18T07:42:57.637Z,94.30
2018-01-18T07:45:31.429Z,94.40
2018-01-18T07:48:05.124Z,94.20
2018-01-18T07:50:38.890Z,94.20
2018-01-18T07:53:12.831Z,94.20
2018-01-18T07:55:47.331Z,94.20
2018-01-18T07:58:21.921Z,94.10
2018-01-18T08:00:58.390Z,94.10
2018-01-18T08:03:38.653Z,94.40
2018-01-18T08:06:12.563Z,94.00
2018-01-18T08:08:47.195Z,94.10
2018-01-18T08:11:21.811Z,93.90
2018-01-18T08:13:55.646Z,93.90
2018-01-18T08:16:30.260Z,93.80
2018-01-18T08:19:03.960Z,93.80
2018-01-18T08:21:37.779Z,93.90
2018-01-18T08:24:14.579Z,94.20
2018-01-18T08:26:49.247Z,94.10
2018-01-18T08:29:23.040Z,94.10
2018-01-18T08:31:56.828Z,94.30
2018-01-18T08:34:32.468Z,94.40
2018-01-18T08:37:06.260Z,94.40
2018-01-18T08:39:40.048Z,94.20
2018-01-18T08:42:14.661Z,94.30
2018-01-18T08:44:49.092Z,94.50
2018-01-18T08:47:23.494Z,94.50
2018-01-18T08:50:00.674Z,94.70
2018-01-18T08:52:35.303Z,94.70
2018-01-18T08:55:09.028Z,94.70
2018-01-18T08:57:42.836Z,95.10
2018-01-18T09:00:16.671Z,94.70
2018-01-18T09:02:50.451Z,94.80
2018-01-18T09:05:25.211Z,94.60
2018-01-18T09:07:58.963Z,94.60
2018-01-18T09:10:32.710Z,94.60
2018-01-18T09:13:06.492Z,94.60
2018-01-18T09:15:40.357Z,94.40
2018-01-18T09:18:14.195Z,94.40
2018-01-18T09:20:48.039Z,94.10
2018-01-18T09:23:21.833Z,94.10
2018-01-18T09:25:56.028Z,94.00
2018-01-18T09:28:30.051Z,93.70
2018-01-18T09:31:03.748Z,93.70
2018-01-18T09:33:37.439Z,93.50
2018-01-18T09:36:11.251Z,93.50
2018-01-18T09:38:45.145Z,93.60
2018-01-18T09:41:18.945Z,93.60
2018-01-18T09:43:53.103Z,93.40
2018-01-18T09:46:27.768Z,93.10
2018-01-18T09:49:02.431Z,92.60
2018-01-18T09:51:36.188Z,92.60
2018-01-18T09:54:10.329Z,92.40
2018-01-18T09:56:44.106Z,92.10
2018-01-18T09:59:17.945Z,92.10
2018-01-18T10:01:51.720Z,91.80
2018-01-18T10:04:25.631Z,91.70
2018-01-18T10:07:00.160Z,92.10
2018-01-18T10:09:34.723Z,91.30
2018-01-18T10:12:08.593Z,91.20
2018-01-18T10:14:43.250Z,90.80
2018-01-18T10:17:19.173Z,90.80
2018-01-18T10:19:52.998Z,90.70
2018-01-18T10:22:26.840Z,90.30
2018-01-18T10:25:01.450Z,89.20
2018-01-18T10:27:35.376Z,89.20
2018-01-18T10:30:09.083Z,89.10
2018-01-18T10:32:42.932Z,89.00
2018-01-18T10:35:16.703Z,89.40
2018-01-18T10:37:50.425Z,89.10
2018-01-18T10:40:24.137Z,89.30
2018-01-18T10:42:57.891Z,89.00
2018-01-18T10:45:31.707Z,89.80
2018-01-18T10:48:05.484Z,90.10
2018-01-18T10:50:40.129Z,89.40
2018-01-18T10:53:14.710Z,90.00
2018-01-18T10:55:49.283Z,90.20
2018-01-18T10:58:23.091Z,90.20
2018-01-18T11:00:56.923Z,89.50
2018-01-18T11:03:30.732Z,89.10
2018-01-18T11:06:05.310Z,89.10
2018-01-18T11:08:42.188Z,89.00
2018-01-18T11:11:16.124Z,88.10
2018-01-18T11:13:50.727Z,88.80
2018-01-18T11:16:24.624Z,88.80
2018-01-18T11:18:59.203Z,89.60
2018-01-18T11:21:33.667Z,89.70
2018-01-18T11:24:08.176Z,90.00
2018-01-18T11:26:41.944Z,89.90
2018-01-18T11:29:18.225Z,90.00
2018-01-18T11:31:52.109Z,89.30
2018-01-18T11:34:25.968Z,89.10
2018-01-18T11:37:00.806Z,88.10
2018-01-18T11:39:34.719Z,88.10
2018-01-18T11:42:09.472Z,87.60
2018-01-18T11:44:43.154Z,87.60
2018-01-18T11:47:17.034Z,87.70
2018-01-18T11:49:50.801Z,88.60
2018-01-18T11:52:24.511Z,87.40
2018-01-18T11:54:58.327Z,87.30
2018-01-18T11:57:32.919Z,88.70
2018-01-18T12:00:06.684Z,88.60
2018-01-18T12:02:41.339Z,87.90
2018-01-18T12:05:15.923Z,88.30
2018-01-18T12:07:49.811Z,87.40
2018-01-18T12:10:24.359Z,87.30
2018-01-18T12:12:58.227Z,87.20
2018-01-18T12:15:32.021Z,87.10
2018-01-18T12:18:06.632Z,86.90
2018-01-18T12:20:40.423Z,86.80
2018-01-18T12:23:20.007Z,87.80
2018-01-18T12:25:53.860Z,86.60
2018-01-18T12:28:27.928Z,87.10
2018-01-18T12:31:06.104Z,86.80
2018-01-18T12:33:40.490Z,86.40
2018-01-18T12:36:21.347Z,86.90
2018-01-18T12:38:55.051Z,86.80
2018-01-18T12:41:29.792Z,87.50
2018-01-18T12:44:03.628Z,87.10
2018-01-18T12:46:37.383Z,87.80
2018-01-18T12:49:11.957Z,87.50
2018-01-18T12:51:46.473Z,87.10
2018-01-18T12:54:20.615Z,87.10
2018-01-18T12:56:55.099Z,87.70
2018-01-18T12:59:28.974Z,87.60
2018-01-18T13:02:03.037Z,86.90
2018-01-18T13:04:37.206Z,87.10
2018-01-18T13:07:10.849Z,86.50
2018-01-18T13:09:46.829Z,86.50
2018-01-18T13:12:22.145Z,86.80
2018-01-18T13:14:56.682Z,87.50
2018-01-18T13:17:30.427Z,87.40
2018-01-18T13:20:04.268Z,87.00
2018-01-18T13:22:38.031Z,87.50
2018-01-18T13:25:11.772Z,88.10
2018-01-18T13:27:45.639Z,88.50
2018-01-18T13:30:19.431Z,89.60
2018-01-18T13:32:53.535Z,88.60
2018-01-18T13:35:27.294Z,89.10
2018-01-18T13:38:01.876Z,89.00
2018-01-18T13:40:37.677Z,89.00
2018-01-18T13:43:12.341Z,91.30
2018-01-18T13:45:46.932Z,90.70
2018-01-18T13:48:21.439Z,91.00
2018-01-18T13:50:55.188Z,90.90
2018-01-18T13:53:29.023Z,91.10
2018-01-18T13:56:03.476Z,91.70
2018-01-18T13:58:38.037Z,91.80
2018-01-18T14:01:12.640Z,92.50
2018-01-18T14:03:46.424Z,92.50
2018-01-18T14:06:21.071Z,92.40
2018-01-18T14:08:54.949Z,92.30
2018-01-18T14:11:28.711Z,92.60
2018-01-18T14:14:02.487Z,92.30
2018-01-18T14:16:36.240Z,92.50
2018-01-18T14:19:10.073Z,92.20
2018-01-18T14:21:46.956Z,92.60
2018-01-18T14:24:21.660Z,91.90
2018-01-18T14:26:55.448Z,91.80
2018-01-18T14:29:29.457Z,91.90
2018-01-18T14:32:03.231Z,91.60
2018-01-18T14:34:37.752Z,91.70
2018-01-18T14:37:14.739Z,91.70
2018-01-18T14:39:48.341Z,91.90
2018-01-18T14:42:23.018Z,92.10
2018-01-18T14:44:57.507Z,92.90
2018-01-18T14:47:31.285Z,92.90
2018-01-18T14:50:05.123Z,93.20
2018-01-18T14:52:38.932Z,93.60
2018-01-18T14:55:13.540Z,94.00
2018-01-18T14:57:48.128Z,94.30
2018-01-18T15:00:21.948Z,94.30
2018-01-18T15:02:55.739Z,94.70
2018-01-18T15:05:29.610Z,94.50
2018-01-18T15:08:05.207Z,95.30
2018-01-18T15:10:40.161Z,95.40
2018-01-18T15:13:13.988Z,95.40
2018-01-18T15:15:47.748Z,95.60
2018-01-18T15:18:21.569Z,95.60
2018-01-18T15:20:55.433Z,96.00
2018-01-18T15:23:30.096Z,95.80
2018-01-18T15:26:03.883Z,95.80
2018-01-18T15:28:39.660Z,95.40
2018-01-18T15:31:13.499Z,95.70
2018-01-18T15:33:47.195Z,95.40
2018-01-18T15:36:21.114Z,95.40
2018-01-18T15:38:55.611Z,94.80
2018-01-18T15:41:29.400Z,94.80
2018-01-18T15:44:04.036Z,94.80
2018-01-18T15:46:38.668Z,94.50
2018-01-18T15:49:12.407Z,94.40
2018-01-18T15:51:46.209Z,94.80
2018-01-18T15:54:20.156Z,94.70
2018-01-18T15:56:54.724Z,95.50
2018-01-18T15:59:29.541Z,95.20
2018-01-18T16:02:03.404Z,94.50
2018-01-18T16:04:37.072Z,94.80
2018-01-18T16:07:10.784Z,94.70
2018-01-18T16:09:44.587Z,94.80
2018-01-18T16:12:18.434Z,95.30
2018-01-18T16:14:53.012Z,95.80
2018-01-18T16:17:26.849Z,95.80
2018-01-18T16:20:00.946Z,96.10
2018-01-18T16:22:35.456Z,96.00
2018-01-18T16:25:20.548Z,96.00
2018-01-18T16:27:54.952Z,96.00
2018-01-18T16:30:33.318Z,96.40
2018-01-18T16:33:07.780Z,96.40
2018-01-18T16:35:41.658Z,96.30
2018-01-18T16:38:15.498Z,96.50
2018-01-18T16:40:50.307Z,96.80
2018-01-18T16:43:24.040Z,96.90
2018-01-18T16:45:58.741Z,96.50
2018-01-18T16:48:32.516Z,96.50
2018-01-18T16:51:06.208Z,96.50
2018-01-18T16:53:40.955Z,96.10
2018-01-18T16:56:14.736Z,94.20
2018-01-18T16:58:48.488Z,92.90
2018-01-18T17:01:23.221Z,92.90
2018-01-18T17:03:56.929Z,92.90
2018-01-18T17:06:30.655Z,92.90
2018-01-18T17:09:04.379Z,93.30
2018-01-18T17:11:38.156Z,92.70
2018-01-18T17:14:12.824Z,92.60
2018-01-18T17:16:47.320Z,91.40
2018-01-18T17:19:20.979Z,91.40
2018-01-18T17:21:54.792Z,91.10
2018-01-18T17:24:29.199Z,91.20
2018-01-18T17:27:03.058Z,91.20
2018-01-18T17:29:36.875Z,90.50
2018-01-18T17:32:11.760Z,90.70
2018-01-18T17:34:46.179Z,90.70
2018-01-18T17:37:19.863Z,90.70
2018-01-18T17:39:53.643Z,91.10
2018-01-18T17:42:27.460Z,91.10
2018-01-18T17:45:01.220Z,91.00
2018-01-18T17:47:35.342Z,91.60
2018-01-18T17:50:09.908Z,90.70
2018-01-18T17:52:45.607Z,91.00
2018-01-18T17:55:19.343Z,90.50
2018-01-18T17:57:53.031Z,90.80
2018-01-18T18:00:27.593Z,90.90
2018-01-18T18:03:01.772Z,90.50
2018-01-18T18:05:35.564Z,90.50
2018-01-18T18:08:09.421Z,90.40
2018-01-18T18:10:44.115Z,90.10
2018-01-18T18:13:18.715Z,90.20
2018-01-18T18:15:52.428Z,90.20
2018-01-18T18:18:27.948Z,91.00
2018-01-18T18:21:01.672Z,90.90
2018-01-18T18:23:35.495Z,90.90
2018-01-18T18:26:09.685Z,91.00
2018-01-18T18:28:43.547Z,90.40
2018-01-18T18:31:17.319Z,90.00
2018-01-18T18:33:51.125Z,90.90
2018-01-18T18:36:25.130Z,90.80
2018-01-18T18:38:58.933Z,91.90
2018-01-18T18:41:33.537Z,92.70
2018-01-18T18:44:07.340Z,92.70
2018-01-18T18:46:41.353Z,92.60
2018-01-18T18:49:15.248Z,92.90
2018-01-18T18:51:49.884Z,92.80
2018-01-18T18:54:24.304Z,92.70
2018-01-18T18:56:58.932Z,92.80
2018-01-18T18:59:34.331Z,92.70
2018-01-18T19:02:08.794Z,92.70
2018-01-18T19:04:43.936Z,92.70
2018-01-18T19:07:18.276Z,92.70
2018-01-18T19:09:53.907Z,92.80
2018-01-18T19:12:28.725Z,92.60
2018-01-18T19:15:03.356Z,93.10
2018-01-18T19:17:37.926Z,93.20
2018-01-18T19:20:12.308Z,93.40
2018-01-18T19:22:46.828Z,93.20
2018-01-18T19:25:21.347Z,93.30
2018-01-18T19:27:55.576Z,93.60
2018-01-18T19:30:30.314Z,93.40
2018-01-18T19:33:04.708Z,93.60
2018-01-18T19:35:40.873Z,93.30
2018-01-18T19:38:15.946Z,93.30
2018-01-18T19:40:50.444Z,93.00
2018-01-18T19:43:26.822Z,93.20
2018-01-18T19:46:00.538Z,93.10
2018-01-18T19:48:35.385Z,93.20
2018-01-18T19:51:09.083Z,93.20
2018-01-18T19:53:42.867Z,92.60
2018-01-18T19:56:16.544Z,92.50
2018-01-18T19:58:51.168Z,92.50
2018-01-18T20:01:25.082Z,92.50
2018-01-18T20:03:59.983Z,92.90
2018-01-18T20:06:34.576Z,92.90
2018-01-18T20:09:08.280Z,92.90
2018-01-18T20:11:42.139Z,92.90
2018-01-18T20:14:16.786Z,92.80
2018-01-18T20:16:50.547Z,92.80
2018-01-18T20:19:24.366Z,93.00
2018-01-18T20:21:58.142Z,93.00
2018-01-18T20:24:32.022Z,92.90
2018-01-18T20:27:05.871Z,92.90
2018-01-18T20:29:39.620Z,92.90
2018-01-18T20:32:14.757Z,92.80
2018-01-18T20:34:48.603Z,92.80
2018-01-18T20:37:23.212Z,92.40
2018-01-18T20:39:57.018Z,92.40
2018-01-18T20:42:30.733Z,92.50
2018-01-18T20:45:05.292Z,92.30
2018-01-18T20:47:39.115Z,92.20
2018-01-18T20:50:13.020Z,92.30
2018-01-18T20:52:47.043Z,92.30
2018-01-18T20:55:20.933Z,92.50
2018-01-18T20:57:54.783Z,92.50
2018-01-18T21:00:28.671Z,92.60
2018-01-18T21:03:02.519Z,92.40
2018-01-18T21:05:36.363Z,92.30
2018-01-18T21:08:10.241Z,92.40
2018-01-18T21:10:44.138Z,92.70
2018-01-18T21:13:17.997Z,92.40
2018-01-18T21:15:52.495Z,92.70
2018-01-18T21:18:26.214Z,92.40
2018-01-18T21:21:00.116Z,92.30
2018-01-18T21:23:34.078Z,92.60
2018-01-18T21:26:08.540Z,92.30
2018-01-18T21:28:42.443Z,92.30
2018-01-18T21:31:16.199Z,92.30
2018-01-18T21:33:50.118Z,92.30
2018-01-18T21:36:23.849Z,92.10
2018-01-18T21:38:57.702Z,92.10
2018-01-18T21:41:32.283Z,92.10
2018-01-18T21:44:06.040Z,92.10
2018-01-18T21:46:39.905Z,92.10
2018-01-18T21:49:13.655Z,92.10
2018-01-18T21:51:47.527Z,91.80
2018-01-18T21:54:21.258Z,91.80
2018-01-18T21:56:55.960Z,91.80
2018-01-18T21:59:30.396Z,91.90
